sensor_id;sensor_type;location;lat;lon;timestamp;P1;durP1;ratioP1;P2;durP2;ratioP2
68680;SDS011;55836;49.858;6.756;2023-07-13T00:01:19;2.53;;;2.33;;
68680;SDS011;55836;49.858;6.756;2023-07-13T00:03:45;3.87;;;2.00;;
68680;SDS011;55836;49.858;6.756;2023-07-13T00:06:11;2.50;;;2.23;;
68680;SDS011;55836;49.858;6.756;2023-07-13T00:08:37;4.33;;;2.53;;
68680;SDS011;55836;49.858;6.756;2023-07-13T00:11:04;3.83;;;2.13;;
68680;SDS011;55836;49.858;6.756;2023-07-13T00:13:31;2.20;;;2.00;;
68680;SDS011;55836;49.858;6.756;2023-07-13T00:15:57;3.63;;;2.60;;
68680;SDS011;55836;49.858;6.756;2023-07-13T00:18:23;5.90;;;2.47;;
68680;SDS011;55836;49.858;6.756;2023-07-13T00:20:55;4.47;;;2.13;;
68680;SDS011;55836;49.858;6.756;2023-07-13T00:23:21;3.77;;;2.37;;
68680;SDS011;55836;49.858;6.756;2023-07-13T00:25:48;3.93;;;2.40;;
68680;SDS011;55836;49.858;6.756;2023-07-13T00:28:15;3.63;;;2.40;;
68680;SDS011;55836;49.858;6.756;2023-07-13T00:30:41;7.40;;;2.80;;
68680;SDS011;55836;49.858;6.756;2023-07-13T00:33:08;6.53;;;2.20;;
68680;SDS011;55836;49.858;6.756;2023-07-13T00:35:34;3.17;;;2.07;;
68680;SDS011;55836;49.858;6.756;2023-07-13T00:38:01;3.23;;;2.17;;
68680;SDS011;55836;49.858;6.756;2023-07-13T00:40:27;5.00;;;2.83;;
68680;SDS011;55836;49.858;6.756;2023-07-13T00:42:53;4.30;;;2.30;;
68680;SDS011;55836;49.858;6.756;2023-07-13T00:47:45;4.63;;;2.37;;
68680;SDS011;55836;49.858;6.756;2023-07-13T00:50:11;2.27;;;2.07;;
68680;SDS011;55836;49.858;6.756;2023-07-13T00:52:39;5.43;;;2.37;;
68680;SDS011;55836;49.858;6.756;2023-07-13T00:55:06;5.43;;;2.40;;
68680;SDS011;55836;49.858;6.756;2023-07-13T00:57:34;3.40;;;2.17;;
68680;SDS011;55836;49.858;6.756;2023-07-13T01:00:01;4.53;;;2.23;;
68680;SDS011;55836;49.858;6.756;2023-07-13T01:02:29;4.83;;;2.00;;
68680;SDS011;55836;49.858;6.756;2023-07-13T01:04:56;6.23;;;2.37;;
68680;SDS011;55836;49.858;6.756;2023-07-13T01:07:22;5.27;;;2.70;;
68680;SDS011;55836;49.858;6.756;2023-07-13T01:09:49;4.60;;;2.37;;
68680;SDS011;55836;49.858;6.756;2023-07-13T01:12:14;3.53;;;2.27;;
68680;SDS011;55836;49.858;6.756;2023-07-13T01:14:41;4.00;;;2.37;;
68680;SDS011;55836;49.858;6.756;2023-07-13T01:17:08;2.37;;;2.00;;
68680;SDS011;55836;49.858;6.756;2023-07-13T01:19:36;4.50;;;2.27;;
68680;SDS011;55836;49.858;6.756;2023-07-13T01:22:22;5.73;;;2.33;;
68680;SDS011;55836;49.858;6.756;2023-07-13T01:24:52;3.93;;;2.70;;
68680;SDS011;55836;49.858;6.756;2023-07-13T01:27:22;4.30;;;2.43;;
68680;SDS011;55836;49.858;6.756;2023-07-13T01:29:50;3.80;;;2.10;;
68680;SDS011;55836;49.858;6.756;2023-07-13T01:32:18;4.93;;;2.37;;
68680;SDS011;55836;49.858;6.756;2023-07-13T01:34:49;4.07;;;2.30;;
68680;SDS011;55836;49.858;6.756;2023-07-13T01:37:15;5.60;;;3.20;;
68680;SDS011;55836;49.858;6.756;2023-07-13T01:39:41;4.80;;;2.40;;
68680;SDS011;55836;49.858;6.756;2023-07-13T01:42:07;3.83;;;2.00;;
68680;SDS011;55836;49.858;6.756;2023-07-13T01:44:33;3.40;;;2.50;;
68680;SDS011;55836;49.858;6.756;2023-07-13T01:46:59;2.83;;;2.30;;
68680;SDS011;55836;49.858;6.756;2023-07-13T01:49:25;2.50;;;2.00;;
68680;SDS011;55836;49.858;6.756;2023-07-13T01:51:51;2.43;;;2.00;;
68680;SDS011;55836;49.858;6.756;2023-07-13T01:54:17;4.63;;;2.10;;
68680;SDS011;55836;49.858;6.756;2023-07-13T01:56:43;3.40;;;2.20;;
68680;SDS011;55836;49.858;6.756;2023-07-13T01:59:09;4.67;;;2.13;;
68680;SDS011;55836;49.858;6.756;2023-07-13T02:01:35;4.13;;;2.03;;
68680;SDS011;55836;49.858;6.756;2023-07-13T02:04:02;4.10;;;2.13;;
68680;SDS011;55836;49.858;6.756;2023-07-13T02:06:28;3.13;;;2.10;;
68680;SDS011;55836;49.858;6.756;2023-07-13T02:08:54;5.60;;;2.40;;
68680;SDS011;55836;49.858;6.756;2023-07-13T02:11:20;5.93;;;2.33;;
68680;SDS011;55836;49.858;6.756;2023-07-13T02:13:47;3.50;;;2.43;;
68680;SDS011;55836;49.858;6.756;2023-07-13T02:16:13;3.60;;;2.03;;
68680;SDS011;55836;49.858;6.756;2023-07-13T02:18:40;4.73;;;2.37;;
68680;SDS011;55836;49.858;6.756;2023-07-13T02:21:06;4.43;;;2.30;;
68680;SDS011;55836;49.858;6.756;2023-07-13T02:23:32;3.53;;;2.30;;
68680;SDS011;55836;49.858;6.756;2023-07-13T02:25:58;4.90;;;2.03;;
68680;SDS011;55836;49.858;6.756;2023-07-13T02:28:25;5.73;;;2.13;;
68680;SDS011;55836;49.858;6.756;2023-07-13T02:30:51;3.03;;;2.10;;
68680;SDS011;55836;49.858;6.756;2023-07-13T02:33:17;3.17;;;2.00;;
68680;SDS011;55836;49.858;6.756;2023-07-13T02:35:43;3.00;;;2.30;;
68680;SDS011;55836;49.858;6.756;2023-07-13T02:38:09;2.47;;;1.73;;
68680;SDS011;55836;49.858;6.756;2023-07-13T02:40:35;2.73;;;1.63;;
68680;SDS011;55836;49.858;6.756;2023-07-13T02:43:03;2.93;;;2.20;;
68680;SDS011;55836;49.858;6.756;2023-07-13T02:45:29;6.10;;;2.30;;
68680;SDS011;55836;49.858;6.756;2023-07-13T02:47:55;4.03;;;2.20;;
68680;SDS011;55836;49.858;6.756;2023-07-13T02:50:21;3.27;;;2.00;;
68680;SDS011;55836;49.858;6.756;2023-07-13T02:52:47;2.60;;;2.00;;
68680;SDS011;55836;49.858;6.756;2023-07-13T02:55:13;2.50;;;1.97;;
68680;SDS011;55836;49.858;6.756;2023-07-13T02:57:39;4.00;;;1.80;;
68680;SDS011;55836;49.858;6.756;2023-07-13T03:00:06;4.07;;;1.90;;
68680;SDS011;55836;49.858;6.756;2023-07-13T03:02:32;2.67;;;2.27;;
68680;SDS011;55836;49.858;6.756;2023-07-13T03:04:59;5.10;;;2.07;;
68680;SDS011;55836;49.858;6.756;2023-07-13T03:07:25;4.63;;;2.20;;
68680;SDS011;55836;49.858;6.756;2023-07-13T03:09:57;4.13;;;2.23;;
68680;SDS011;55836;49.858;6.756;2023-07-13T03:12:24;4.43;;;2.67;;
68680;SDS011;55836;49.858;6.756;2023-07-13T03:14:50;3.00;;;2.10;;
68680;SDS011;55836;49.858;6.756;2023-07-13T03:17:17;2.73;;;1.90;;
68680;SDS011;55836;49.858;6.756;2023-07-13T03:19:43;3.47;;;2.10;;
68680;SDS011;55836;49.858;6.756;2023-07-13T03:22:09;3.83;;;1.77;;
68680;SDS011;55836;49.858;6.756;2023-07-13T03:24:35;4.47;;;1.80;;
68680;SDS011;55836;49.858;6.756;2023-07-13T03:27:04;3.43;;;2.13;;
68680;SDS011;55836;49.858;6.756;2023-07-13T03:29:30;2.60;;;1.87;;
68680;SDS011;55836;49.858;6.756;2023-07-13T03:31:56;4.10;;;2.00;;
68680;SDS011;55836;49.858;6.756;2023-07-13T03:34:22;2.20;;;1.80;;
68680;SDS011;55836;49.858;6.756;2023-07-13T03:36:48;4.40;;;2.00;;
68680;SDS011;55836;49.858;6.756;2023-07-13T03:39:14;4.23;;;2.17;;
68680;SDS011;55836;49.858;6.756;2023-07-13T03:41:40;4.20;;;1.83;;
68680;SDS011;55836;49.858;6.756;2023-07-13T03:44:06;4.63;;;1.90;;
68680;SDS011;55836;49.858;6.756;2023-07-13T03:46:32;4.33;;;1.80;;
68680;SDS011;55836;49.858;6.756;2023-07-13T03:48:59;2.83;;;1.80;;
68680;SDS011;55836;49.858;6.756;2023-07-13T03:51:25;2.80;;;1.80;;
68680;SDS011;55836;49.858;6.756;2023-07-13T03:53:51;3.43;;;1.83;;
68680;SDS011;55836;49.858;6.756;2023-07-13T03:56:17;2.87;;;2.00;;
68680;SDS011;55836;49.858;6.756;2023-07-13T03:58:47;3.53;;;1.73;;
68680;SDS011;55836;49.858;6.756;2023-07-13T04:01:14;4.23;;;2.07;;
68680;SDS011;55836;49.858;6.756;2023-07-13T04:03:41;2.93;;;1.83;;
68680;SDS011;55836;49.858;6.756;2023-07-13T04:06:07;3.47;;;1.70;;
68680;SDS011;55836;49.858;6.756;2023-07-13T04:08:35;6.20;;;2.00;;
68680;SDS011;55836;49.858;6.756;2023-07-13T04:11:02;3.63;;;1.80;;
68680;SDS011;55836;49.858;6.756;2023-07-13T04:13:29;3.13;;;1.90;;
68680;SDS011;55836;49.858;6.756;2023-07-13T04:15:55;2.57;;;1.70;;
68680;SDS011;55836;49.858;6.756;2023-07-13T04:18:21;2.20;;;1.93;;
68680;SDS011;55836;49.858;6.756;2023-07-13T04:20:48;2.77;;;1.90;;
68680;SDS011;55836;49.858;6.756;2023-07-13T04:23:14;3.57;;;1.83;;
68680;SDS011;55836;49.858;6.756;2023-07-13T04:25:47;4.70;;;1.87;;
68680;SDS011;55836;49.858;6.756;2023-07-13T04:28:14;9.63;;;2.00;;
68680;SDS011;55836;49.858;6.756;2023-07-13T04:30:40;4.33;;;1.90;;
68680;SDS011;55836;49.858;6.756;2023-07-13T04:33:06;6.13;;;2.00;;
68680;SDS011;55836;49.858;6.756;2023-07-13T04:35:33;3.53;;;1.90;;
68680;SDS011;55836;49.858;6.756;2023-07-13T04:38:00;3.10;;;1.93;;
68680;SDS011;55836;49.858;6.756;2023-07-13T04:40:26;5.73;;;1.80;;
68680;SDS011;55836;49.858;6.756;2023-07-13T04:42:53;3.40;;;1.97;;
68680;SDS011;55836;49.858;6.756;2023-07-13T04:45:19;3.33;;;1.73;;
68680;SDS011;55836;49.858;6.756;2023-07-13T04:47:45;2.90;;;2.10;;
68680;SDS011;55836;49.858;6.756;2023-07-13T04:50:12;3.23;;;1.90;;
68680;SDS011;55836;49.858;6.756;2023-07-13T04:52:40;3.07;;;1.87;;
68680;SDS011;55836;49.858;6.756;2023-07-13T04:55:07;3.30;;;1.70;;
68680;SDS011;55836;49.858;6.756;2023-07-13T04:57:33;4.03;;;1.63;;
68680;SDS011;55836;49.858;6.756;2023-07-13T04:59:59;3.80;;;1.93;;
68680;SDS011;55836;49.858;6.756;2023-07-13T05:02:26;4.27;;;2.03;;
68680;SDS011;55836;49.858;6.756;2023-07-13T05:04:53;2.73;;;1.73;;
68680;SDS011;55836;49.858;6.756;2023-07-13T05:07:19;4.43;;;1.60;;
68680;SDS011;55836;49.858;6.756;2023-07-13T05:09:45;3.67;;;1.93;;
68680;SDS011;55836;49.858;6.756;2023-07-13T05:12:11;3.40;;;1.80;;
68680;SDS011;55836;49.858;6.756;2023-07-13T05:14:37;4.53;;;2.50;;
68680;SDS011;55836;49.858;6.756;2023-07-13T05:17:03;2.93;;;2.20;;
68680;SDS011;55836;49.858;6.756;2023-07-13T05:19:29;4.73;;;2.03;;
68680;SDS011;55836;49.858;6.756;2023-07-13T05:21:55;4.23;;;1.90;;
68680;SDS011;55836;49.858;6.756;2023-07-13T05:24:24;2.87;;;1.70;;
68680;SDS011;55836;49.858;6.756;2023-07-13T05:26:52;3.00;;;2.30;;
68680;SDS011;55836;49.858;6.756;2023-07-13T05:29:21;5.73;;;2.60;;
68680;SDS011;55836;49.858;6.756;2023-07-13T05:31:48;4.33;;;2.23;;
68680;SDS011;55836;49.858;6.756;2023-07-13T05:34:14;5.07;;;2.33;;
68680;SDS011;55836;49.858;6.756;2023-07-13T05:36:40;3.87;;;1.87;;
68680;SDS011;55836;49.858;6.756;2023-07-13T05:39:06;5.20;;;1.80;;
68680;SDS011;55836;49.858;6.756;2023-07-13T05:41:33;4.23;;;2.10;;
68680;SDS011;55836;49.858;6.756;2023-07-13T05:43:59;3.20;;;1.70;;
68680;SDS011;55836;49.858;6.756;2023-07-13T05:46:25;3.77;;;1.70;;
68680;SDS011;55836;49.858;6.756;2023-07-13T05:48:51;5.77;;;2.13;;
68680;SDS011;55836;49.858;6.756;2023-07-13T05:51:17;5.47;;;2.10;;
68680;SDS011;55836;49.858;6.756;2023-07-13T05:53:43;4.03;;;1.70;;
68680;SDS011;55836;49.858;6.756;2023-07-13T05:56:09;2.83;;;1.70;;
68680;SDS011;55836;49.858;6.756;2023-07-13T05:58:36;4.83;;;1.60;;
68680;SDS011;55836;49.858;6.756;2023-07-13T06:01:04;3.03;;;1.60;;
68680;SDS011;55836;49.858;6.756;2023-07-13T06:03:30;3.50;;;1.70;;
68680;SDS011;55836;49.858;6.756;2023-07-13T06:05:57;5.23;;;1.40;;
68680;SDS011;55836;49.858;6.756;2023-07-13T06:08:25;5.17;;;1.90;;
68680;SDS011;55836;49.858;6.756;2023-07-13T06:10:51;4.67;;;1.83;;
68680;SDS011;55836;49.858;6.756;2023-07-13T06:13:17;1.73;;;1.30;;
68680;SDS011;55836;49.858;6.756;2023-07-13T06:15:47;3.73;;;1.50;;
68680;SDS011;55836;49.858;6.756;2023-07-13T06:18:14;5.87;;;2.03;;
68680;SDS011;55836;49.858;6.756;2023-07-13T06:20:40;4.10;;;1.60;;
68680;SDS011;55836;49.858;6.756;2023-07-13T06:23:06;4.33;;;1.60;;
68680;SDS011;55836;49.858;6.756;2023-07-13T06:25:32;4.33;;;1.80;;
68680;SDS011;55836;49.858;6.756;2023-07-13T06:27:58;4.60;;;1.57;;
68680;SDS011;55836;49.858;6.756;2023-07-13T06:30:23;6.10;;;1.80;;
68680;SDS011;55836;49.858;6.756;2023-07-13T06:32:50;6.33;;;1.93;;
68680;SDS011;55836;49.858;6.756;2023-07-13T06:35:16;4.20;;;1.60;;
68680;SDS011;55836;49.858;6.756;2023-07-13T06:37:42;8.07;;;2.00;;
68680;SDS011;55836;49.858;6.756;2023-07-13T06:40:08;9.07;;;1.60;;
68680;SDS011;55836;49.858;6.756;2023-07-13T06:42:34;2.63;;;1.60;;
68680;SDS011;55836;49.858;6.756;2023-07-13T06:45:00;3.23;;;1.50;;
68680;SDS011;55836;49.858;6.756;2023-07-13T06:47:26;3.47;;;1.47;;
68680;SDS011;55836;49.858;6.756;2023-07-13T06:49:52;2.33;;;1.60;;
68680;SDS011;55836;49.858;6.756;2023-07-13T06:52:19;4.57;;;1.47;;
68680;SDS011;55836;49.858;6.756;2023-07-13T06:54:45;2.60;;;1.30;;
68680;SDS011;55836;49.858;6.756;2023-07-13T06:57:11;2.53;;;1.20;;
68680;SDS011;55836;49.858;6.756;2023-07-13T06:59:37;2.63;;;1.30;;
68680;SDS011;55836;49.858;6.756;2023-07-13T07:02:03;2.87;;;1.57;;
68680;SDS011;55836;49.858;6.756;2023-07-13T07:04:29;4.20;;;1.50;;
68680;SDS011;55836;49.858;6.756;2023-07-13T07:06:55;5.83;;;2.07;;
68680;SDS011;55836;49.858;6.756;2023-07-13T07:09:22;5.43;;;1.30;;
68680;SDS011;55836;49.858;6.756;2023-07-13T07:11:48;4.90;;;1.90;;
68680;SDS011;55836;49.858;6.756;2023-07-13T07:14:14;3.37;;;1.20;;
68680;SDS011;55836;49.858;6.756;2023-07-13T07:16:40;2.70;;;1.53;;
68680;SDS011;55836;49.858;6.756;2023-07-13T07:19:06;2.83;;;1.20;;
68680;SDS011;55836;49.858;6.756;2023-07-13T07:21:32;2.93;;;1.37;;
68680;SDS011;55836;49.858;6.756;2023-07-13T07:23:58;1.83;;;1.20;;
68680;SDS011;55836;49.858;6.756;2023-07-13T07:26:25;4.23;;;1.53;;
68680;SDS011;55836;49.858;6.756;2023-07-13T07:28:51;3.17;;;1.30;;
68680;SDS011;55836;49.858;6.756;2023-07-13T07:31:17;3.30;;;1.30;;
68680;SDS011;55836;49.858;6.756;2023-07-13T07:33:43;4.70;;;1.53;;
68680;SDS011;55836;49.858;6.756;2023-07-13T07:36:09;2.20;;;1.17;;
68680;SDS011;55836;49.858;6.756;2023-07-13T07:38:36;2.47;;;1.10;;
68680;SDS011;55836;49.858;6.756;2023-07-13T07:41:05;3.20;;;1.50;;
68680;SDS011;55836;49.858;6.756;2023-07-13T07:43:31;4.33;;;1.43;;
68680;SDS011;55836;49.858;6.756;2023-07-13T07:45:57;5.13;;;1.30;;
68680;SDS011;55836;49.858;6.756;2023-07-13T07:48:23;2.47;;;1.47;;
68680;SDS011;55836;49.858;6.756;2023-07-13T07:50:49;2.63;;;1.03;;
68680;SDS011;55836;49.858;6.756;2023-07-13T07:53:15;3.87;;;1.20;;
68680;SDS011;55836;49.858;6.756;2023-07-13T07:55:41;5.47;;;1.47;;
68680;SDS011;55836;49.858;6.756;2023-07-13T07:58:07;2.27;;;0.93;;
68680;SDS011;55836;49.858;6.756;2023-07-13T08:00:33;2.17;;;0.90;;
68680;SDS011;55836;49.858;6.756;2023-07-13T08:03:00;2.03;;;1.10;;
68680;SDS011;55836;49.858;6.756;2023-07-13T08:05:26;2.90;;;1.20;;
68680;SDS011;55836;49.858;6.756;2023-07-13T08:07:52;2.80;;;1.43;;
68680;SDS011;55836;49.858;6.756;2023-07-13T08:10:20;1.63;;;1.10;;
68680;SDS011;55836;49.858;6.756;2023-07-13T08:12:46;2.07;;;1.30;;
68680;SDS011;55836;49.858;6.756;2023-07-13T08:15:13;2.67;;;1.10;;
68680;SDS011;55836;49.858;6.756;2023-07-13T08:17:40;2.20;;;1.00;;
68680;SDS011;55836;49.858;6.756;2023-07-13T08:20:06;3.97;;;1.33;;
68680;SDS011;55836;49.858;6.756;2023-07-13T08:22:34;1.80;;;0.90;;
68680;SDS011;55836;49.858;6.756;2023-07-13T08:25:00;4.17;;;1.20;;
68680;SDS011;55836;49.858;6.756;2023-07-13T08:27:27;1.70;;;0.97;;
68680;SDS011;55836;49.858;6.756;2023-07-13T08:29:53;2.37;;;1.17;;
68680;SDS011;55836;49.858;6.756;2023-07-13T08:32:20;2.20;;;1.07;;
68680;SDS011;55836;49.858;6.756;2023-07-13T08:34:46;3.30;;;1.47;;
68680;SDS011;55836;49.858;6.756;2023-07-13T08:37:12;3.33;;;1.13;;
68680;SDS011;55836;49.858;6.756;2023-07-13T08:39:38;2.17;;;1.20;;
68680;SDS011;55836;49.858;6.756;2023-07-13T08:44:40;2.37;;;1.13;;
68680;SDS011;55836;49.858;6.756;2023-07-13T08:47:11;4.77;;;1.60;;
68680;SDS011;55836;49.858;6.756;2023-07-13T08:49:37;4.83;;;1.33;;
68680;SDS011;55836;49.858;6.756;2023-07-13T08:52:05;2.40;;;1.10;;
68680;SDS011;55836;49.858;6.756;2023-07-13T08:54:35;3.87;;;1.50;;
68680;SDS011;55836;49.858;6.756;2023-07-13T08:57:10;2.73;;;1.37;;
68680;SDS011;55836;49.858;6.756;2023-07-13T08:59:37;3.20;;;1.07;;
68680;SDS011;55836;49.858;6.756;2023-07-13T09:04:34;3.03;;;1.47;;
68680;SDS011;55836;49.858;6.756;2023-07-13T09:14:42;3.10;;;1.10;;
68680;SDS011;55836;49.858;6.756;2023-07-13T09:17:18;4.00;;;1.30;;
68680;SDS011;55836;49.858;6.756;2023-07-13T09:19:47;3.70;;;1.20;;
68680;SDS011;55836;49.858;6.756;2023-07-13T09:22:16;4.70;;;1.20;;
68680;SDS011;55836;49.858;6.756;2023-07-13T09:27:29;4.40;;;1.10;;
68680;SDS011;55836;49.858;6.756;2023-07-13T09:30:10;2.47;;;1.47;;
68680;SDS011;55836;49.858;6.756;2023-07-13T09:32:39;1.63;;;1.00;;
68680;SDS011;55836;49.858;6.756;2023-07-13T09:35:11;3.93;;;1.30;;
68680;SDS011;55836;49.858;6.756;2023-07-13T09:37:44;3.70;;;1.20;;
68680;SDS011;55836;49.858;6.756;2023-07-13T09:40:23;2.17;;;1.00;;
68680;SDS011;55836;49.858;6.756;2023-07-13T09:42:51;3.80;;;1.20;;
68680;SDS011;55836;49.858;6.756;2023-07-13T09:45:29;1.00;;;0.80;;
68680;SDS011;55836;49.858;6.756;2023-07-13T09:47:59;2.63;;;1.23;;
68680;SDS011;55836;49.858;6.756;2023-07-13T09:50:25;2.43;;;1.20;;
68680;SDS011;55836;49.858;6.756;2023-07-13T09:52:54;1.70;;;1.10;;
68680;SDS011;55836;49.858;6.756;2023-07-13T09:57:50;1.57;;;1.20;;
68680;SDS011;55836;49.858;6.756;2023-07-13T10:00:28;2.63;;;1.00;;
68680;SDS011;55836;49.858;6.756;2023-07-13T10:02:58;3.33;;;1.17;;
68680;SDS011;55836;49.858;6.756;2023-07-13T10:05:24;3.90;;;1.10;;
68680;SDS011;55836;49.858;6.756;2023-07-13T10:07:50;3.07;;;1.47;;
68680;SDS011;55836;49.858;6.756;2023-07-13T10:10:18;2.90;;;1.20;;
68680;SDS011;55836;49.858;6.756;2023-07-13T10:12:47;2.20;;;1.03;;
68680;SDS011;55836;49.858;6.756;2023-07-13T10:15:17;3.50;;;0.97;;
68680;SDS011;55836;49.858;6.756;2023-07-13T10:17:44;1.47;;;1.10;;
68680;SDS011;55836;49.858;6.756;2023-07-13T10:20:10;2.63;;;1.10;;
68680;SDS011;55836;49.858;6.756;2023-07-13T10:22:44;2.37;;;1.27;;
68680;SDS011;55836;49.858;6.756;2023-07-13T10:25:15;3.60;;;1.17;;
68680;SDS011;55836;49.858;6.756;2023-07-13T10:27:42;2.27;;;1.20;;
68680;SDS011;55836;49.858;6.756;2023-07-13T10:32:40;4.13;;;1.10;;
68680;SDS011;55836;49.858;6.756;2023-07-13T10:35:09;2.17;;;1.00;;
68680;SDS011;55836;49.858;6.756;2023-07-13T10:37:41;2.70;;;0.80;;
68680;SDS011;55836;49.858;6.756;2023-07-13T10:40:18;3.00;;;1.10;;
68680;SDS011;55836;49.858;6.756;2023-07-13T10:42:46;2.40;;;0.90;;
68680;SDS011;55836;49.858;6.756;2023-07-13T10:45:18;1.83;;;0.90;;
68680;SDS011;55836;49.858;6.756;2023-07-13T10:47:44;4.70;;;1.00;;
68680;SDS011;55836;49.858;6.756;2023-07-13T10:50:17;1.93;;;0.90;;
68680;SDS011;55836;49.858;6.756;2023-07-13T10:52:47;1.50;;;0.83;;
68680;SDS011;55836;49.858;6.756;2023-07-13T10:58:11;2.20;;;0.80;;
68680;SDS011;55836;49.858;6.756;2023-07-13T11:00:48;1.37;;;0.70;;
68680;SDS011;55836;49.858;6.756;2023-07-13T11:03:16;1.60;;;1.10;;
68680;SDS011;55836;49.858;6.756;2023-07-13T11:05:43;2.00;;;1.00;;
68680;SDS011;55836;49.858;6.756;2023-07-13T11:08:16;1.00;;;0.80;;
68680;SDS011;55836;49.858;6.756;2023-07-13T11:10:46;2.17;;;0.90;;
68680;SDS011;55836;49.858;6.756;2023-07-13T11:15:58;2.87;;;1.07;;
68680;SDS011;55836;49.858;6.756;2023-07-13T11:18:24;2.10;;;1.00;;
68680;SDS011;55836;49.858;6.756;2023-07-13T11:20:50;1.63;;;0.90;;
68680;SDS011;55836;49.858;6.756;2023-07-13T11:23:18;2.10;;;1.10;;
68680;SDS011;55836;49.858;6.756;2023-07-13T11:25:45;1.97;;;1.00;;
68680;SDS011;55836;49.858;6.756;2023-07-13T11:30:38;2.13;;;1.00;;
68680;SDS011;55836;49.858;6.756;2023-07-13T11:33:13;2.70;;;1.27;;
68680;SDS011;55836;49.858;6.756;2023-07-13T11:38:12;2.60;;;1.10;;
68680;SDS011;55836;49.858;6.756;2023-07-13T11:40:40;2.30;;;0.90;;
68680;SDS011;55836;49.858;6.756;2023-07-13T11:43:06;3.47;;;1.20;;
68680;SDS011;55836;49.858;6.756;2023-07-13T11:45:33;1.83;;;1.00;;
68680;SDS011;55836;49.858;6.756;2023-07-13T11:47:59;1.20;;;1.00;;
68680;SDS011;55836;49.858;6.756;2023-07-13T11:50:26;1.13;;;1.00;;
68680;SDS011;55836;49.858;6.756;2023-07-13T11:52:55;2.47;;;1.13;;
68680;SDS011;55836;49.858;6.756;2023-07-13T11:55:22;1.87;;;0.93;;
68680;SDS011;55836;49.858;6.756;2023-07-13T11:57:59;1.47;;;1.07;;
68680;SDS011;55836;49.858;6.756;2023-07-13T12:00:29;2.20;;;0.90;;
68680;SDS011;55836;49.858;6.756;2023-07-13T12:02:59;2.97;;;1.10;;
68680;SDS011;55836;49.858;6.756;2023-07-13T12:05:25;2.27;;;0.93;;
68680;SDS011;55836;49.858;6.756;2023-07-13T12:07:52;2.60;;;1.10;;
68680;SDS011;55836;49.858;6.756;2023-07-13T12:10:26;1.93;;;1.00;;
68680;SDS011;55836;49.858;6.756;2023-07-13T12:15:24;1.67;;;1.07;;
68680;SDS011;55836;49.858;6.756;2023-07-13T12:17:52;2.80;;;1.00;;
68680;SDS011;55836;49.858;6.756;2023-07-13T12:20:25;2.27;;;1.20;;
68680;SDS011;55836;49.858;6.756;2023-07-13T12:22:52;1.83;;;1.20;;
68680;SDS011;55836;49.858;6.756;2023-07-13T12:25:19;2.10;;;1.20;;
68680;SDS011;55836;49.858;6.756;2023-07-13T12:27:49;3.03;;;1.30;;
68680;SDS011;55836;49.858;6.756;2023-07-13T12:30:22;2.60;;;1.00;;
68680;SDS011;55836;49.858;6.756;2023-07-13T12:32:56;2.20;;;1.33;;
68680;SDS011;55836;49.858;6.756;2023-07-13T12:35:25;1.23;;;0.83;;
68680;SDS011;55836;49.858;6.756;2023-07-13T12:37:52;1.70;;;1.20;;
68680;SDS011;55836;49.858;6.756;2023-07-13T12:40:19;2.90;;;1.27;;
68680;SDS011;55836;49.858;6.756;2023-07-13T12:42:47;2.40;;;1.10;;
68680;SDS011;55836;49.858;6.756;2023-07-13T12:47:46;3.77;;;1.53;;
68680;SDS011;55836;49.858;6.756;2023-07-13T12:50:14;3.37;;;1.37;;
68680;SDS011;55836;49.858;6.756;2023-07-13T12:52:42;2.37;;;1.43;;
68680;SDS011;55836;49.858;6.756;2023-07-13T12:55:13;2.40;;;1.33;;
68680;SDS011;55836;49.858;6.756;2023-07-13T12:57:41;2.70;;;1.27;;
68680;SDS011;55836;49.858;6.756;2023-07-13T13:03:50;2.23;;;1.20;;
68680;SDS011;55836;49.858;6.756;2023-07-13T13:05:58;3.33;;;1.30;;
68680;SDS011;55836;49.858;6.756;2023-07-13T13:08:25;1.97;;;1.00;;
68680;SDS011;55836;49.858;6.756;2023-07-13T13:10:51;3.00;;;1.00;;
68680;SDS011;55836;49.858;6.756;2023-07-13T13:13:17;1.47;;;0.90;;
68680;SDS011;55836;49.858;6.756;2023-07-13T13:15:43;1.63;;;1.30;;
68680;SDS011;55836;49.858;6.756;2023-07-13T13:18:14;1.77;;;1.10;;
68680;SDS011;55836;49.858;6.756;2023-07-13T13:20:41;2.70;;;1.23;;
68680;SDS011;55836;49.858;6.756;2023-07-13T13:23:13;4.17;;;1.20;;
68680;SDS011;55836;49.858;6.756;2023-07-13T13:25:43;1.43;;;1.13;;
68680;SDS011;55836;49.858;6.756;2023-07-13T13:28:13;2.27;;;1.30;;
68680;SDS011;55836;49.858;6.756;2023-07-13T13:30:41;2.43;;;1.00;;
68680;SDS011;55836;49.858;6.756;2023-07-13T13:33:09;1.27;;;0.90;;
68680;SDS011;55836;49.858;6.756;2023-07-13T13:35:37;3.40;;;1.47;;
68680;SDS011;55836;49.858;6.756;2023-07-13T13:38:13;4.03;;;1.27;;
68680;SDS011;55836;49.858;6.756;2023-07-13T13:40:39;3.73;;;1.20;;
68680;SDS011;55836;49.858;6.756;2023-07-13T13:43:24;1.83;;;1.10;;
68680;SDS011;55836;49.858;6.756;2023-07-13T13:45:51;2.13;;;1.10;;
68680;SDS011;55836;49.858;6.756;2023-07-13T13:48:18;3.00;;;1.10;;
68680;SDS011;55836;49.858;6.756;2023-07-13T13:50:45;3.57;;;0.90;;
68680;SDS011;55836;49.858;6.756;2023-07-13T13:53:11;3.37;;;1.10;;
68680;SDS011;55836;49.858;6.756;2023-07-13T13:55:38;1.90;;;1.03;;
68680;SDS011;55836;49.858;6.756;2023-07-13T13:58:06;3.13;;;1.50;;
68680;SDS011;55836;49.858;6.756;2023-07-13T14:00:32;1.50;;;1.13;;
68680;SDS011;55836;49.858;6.756;2023-07-13T14:03:01;3.17;;;1.20;;
68680;SDS011;55836;49.858;6.756;2023-07-13T14:05:27;2.23;;;1.17;;
68680;SDS011;55836;49.858;6.756;2023-07-13T14:07:55;2.97;;;1.10;;
68680;SDS011;55836;49.858;6.756;2023-07-13T14:10:22;1.50;;;1.10;;
68680;SDS011;55836;49.858;6.756;2023-07-13T14:12:50;2.73;;;1.00;;
68680;SDS011;55836;49.858;6.756;2023-07-13T14:15:20;1.20;;;0.90;;
68680;SDS011;55836;49.858;6.756;2023-07-13T14:17:46;2.57;;;1.10;;
68680;SDS011;55836;49.858;6.756;2023-07-13T14:20:14;2.17;;;1.00;;
68680;SDS011;55836;49.858;6.756;2023-07-13T14:22:40;1.70;;;1.23;;
68680;SDS011;55836;49.858;6.756;2023-07-13T14:25:10;1.57;;;1.17;;
68680;SDS011;55836;49.858;6.756;2023-07-13T14:27:37;3.23;;;1.00;;
68680;SDS011;55836;49.858;6.756;2023-07-13T14:30:03;1.57;;;1.10;;
68680;SDS011;55836;49.858;6.756;2023-07-13T14:32:29;2.30;;;1.03;;
68680;SDS011;55836;49.858;6.756;2023-07-13T14:34:55;1.00;;;0.80;;
68680;SDS011;55836;49.858;6.756;2023-07-13T14:37:22;3.33;;;1.10;;
68680;SDS011;55836;49.858;6.756;2023-07-13T14:39:49;2.17;;;1.03;;
68680;SDS011;55836;49.858;6.756;2023-07-13T14:42:16;1.63;;;0.90;;
68680;SDS011;55836;49.858;6.756;2023-07-13T14:44:42;2.67;;;1.03;;
68680;SDS011;55836;49.858;6.756;2023-07-13T14:47:08;2.47;;;1.03;;
68680;SDS011;55836;49.858;6.756;2023-07-13T14:49:35;2.67;;;0.90;;
68680;SDS011;55836;49.858;6.756;2023-07-13T14:52:09;2.60;;;0.97;;
68680;SDS011;55836;49.858;6.756;2023-07-13T14:54:36;3.57;;;1.00;;
68680;SDS011;55836;49.858;6.756;2023-07-13T14:57:08;2.40;;;1.30;;
68680;SDS011;55836;49.858;6.756;2023-07-13T14:59:37;1.33;;;1.00;;
68680;SDS011;55836;49.858;6.756;2023-07-13T15:02:08;1.33;;;0.93;;
68680;SDS011;55836;49.858;6.756;2023-07-13T15:04:35;1.17;;;0.97;;
68680;SDS011;55836;49.858;6.756;2023-07-13T15:07:04;2.90;;;1.10;;
68680;SDS011;55836;49.858;6.756;2023-07-13T15:09:30;1.77;;;1.00;;
68680;SDS011;55836;49.858;6.756;2023-07-13T15:11:56;3.37;;;1.00;;
68680;SDS011;55836;49.858;6.756;2023-07-13T15:14:22;2.10;;;1.10;;
68680;SDS011;55836;49.858;6.756;2023-07-13T15:16:50;2.63;;;1.23;;
68680;SDS011;55836;49.858;6.756;2023-07-13T15:19:17;3.57;;;1.17;;
68680;SDS011;55836;49.858;6.756;2023-07-13T15:21:44;3.67;;;1.13;;
68680;SDS011;55836;49.858;6.756;2023-07-13T15:24:10;3.20;;;1.20;;
68680;SDS011;55836;49.858;6.756;2023-07-13T15:26:36;1.63;;;1.10;;
68680;SDS011;55836;49.858;6.756;2023-07-13T15:29:03;1.70;;;1.00;;
68680;SDS011;55836;49.858;6.756;2023-07-13T15:31:30;1.47;;;0.97;;